Weather at Altisurface de La Clusaz [CLOSED]

Public forecast

Using degrees Celsius for public forecast. Weather courtesy of forecast.io.

Closest aviation weather report (METAR) to Altisurface de La Clusaz

Closest report is Annecy-Haute-Savoie-Mont Blanc Airport, 13.7 nm (25.5 km) WNW. Retrieved 2020/09/24 01:30 UTC (10 minutes ago):

LFLP 240130Z AUTO 15002KT 9999 OVC041/// ///CB 17/14 Q1012

Closest aviation forecast (TAF) to Altisurface de La Clusaz

Forecast is more than 6 hours old.

Closest forecast is Annecy-Haute-Savoie-Mont Blanc Airport, 13.7 nm (25.5 km) WNW. Retrieved 2020/09/23 15:00 UTC (11 hours ago):

TAF LFLP 231400Z 2315/2415 22005KT CAVOK PROB40 TEMPO 2322/2406 -SHRA SCT030TCU BKN040 BECMG 2410/2412 FEW050TCU BKN060 PROB40 TEMPO 2413/2415 SHRA SCT050TCU